Aviation Digital Data Service (ADDS)

Output produced by METARs form (0454 UTC 20 October 2017)
found at http://aviationweather.gov/adds/metars/
 
KLFT 200353Z 00000KT 10SM CLR 21/19 A3014 RMK AO2 SLP207 T02110189